الصفحة الرئيسية
METAR-TAF:

METAR-TAF

مطار :

مطار سير سيووساغور رامغولام الدولي

موريشيوس, موريشيوس

دائرة عرض: 20-26S, خط طول: 057-40E, ارتفاع: 55 متر

مراقبة الطقس الحالي

تاريخ ووقت الإصدار 1ساعة و 9 دقيقة قبل الساعة 15:00UTC
ريح 12 عقدة من الشرق/الجنوب الشرقي
درجة الحرارة 25°درجة مئوية
الرطوبة 74%
ضغط 1020 hPa
الرؤية: 8000 متر
غيوم متفرقة على ارتفاع 1500 قدم
غيوم مفككة على ارتفاع 5000 قدم
زخات في الجوار

METAR: FIMP 161500Z 12012KT 8000 VCSH SCT015 BKN050 25/20 Q1020

زمن: 20:09 (16:09 UTC)

توقعات

تاريخ ووقت الإصدار 4ساعات و 29 دقيقة قبل الساعة 11:40UTC
التوقعات صالحة من16 الساعة 12 UTC إلى 17 الساعة 18 UTC
ريح 13 عقدة من الشرق/الجنوب الشرقي تتزايد حتى 25 عقدة
الرؤية 10 كم أو أكثر
غيوم متفرقة على ارتفاع 1800 قدم
نظرية الاحتمالات 30% :
مؤقت
من 17 الساعة 10 UTC إلى 17 الساعة 18 UTC
الرؤية: 7000 متر
غيوم مفككة على ارتفاع 1500 قدم
زخات من الأمطار الخفيفة

TAF: FIMP 161140Z 1612/1718 12013G25KT 9999 SCT018 PROB30 TEMPO 1710/1718 7000 -SHRA BKN015

أرصاد الطقس والتوقعات من أكثر من 4000 مطار (تقارير الطقس للمطار METAR والتنبؤ بالطقس بالمطارTAF).

المحطات المتاحة هي النقط الصفراء والحمراء على الخريطة.

حرك المؤشر فوق النقطة لمعرفة اسم المحطة.

ثم انقر لمعرفة أرصاد وتوقعات الطقس.

لتغيير الخارطة: اضغط على الأزرار الخضراء مع رمز الصليب الأسود للتكبير. على الزر الأخضر مع شرطة للتصغير، أو على الأسهم الخضراء للخرائط المجاورة.


METAR-TAF: